createdAt,value
2023-09-08T00:01:09.268Z,67.72
2023-09-08T00:06:10.892Z,67.76
2023-09-08T00:11:10.566Z,67.94
2023-09-08T00:16:12.712Z,68.05
2023-09-08T00:21:12.155Z,68.32
2023-09-08T00:26:10.997Z,68.53
2023-09-08T00:31:10.890Z,68.61
2023-09-08T00:36:10.888Z,68.88
2023-09-08T00:41:12.777Z,68.95
2023-09-08T00:46:13.797Z,69.10
2023-09-08T00:51:14.709Z,69.19
2023-09-08T00:56:16.036Z,69.36
2023-09-08T01:01:19.136Z,69.57
2023-09-08T01:06:20.613Z,69.70
2023-09-08T01:11:24.436Z,69.98
2023-09-08T01:16:25.141Z,70.06
2023-09-08T01:22:00.769Z,70.22
2023-09-08T01:27:00.590Z,70.25
2023-09-08T01:32:02.081Z,70.65
2023-09-08T01:37:04.145Z,70.95
2023-09-08T01:42:03.686Z,71.31
2023-09-08T01:47:02.584Z,71.36
2023-09-08T01:52:01.909Z,71.34
2023-09-08T01:57:01.958Z,71.45
2023-09-08T02:02:01.815Z,72.14
2023-09-08T02:07:03.041Z,72.25
2023-09-08T02:12:02.650Z,71.89
2023-09-08T02:17:02.309Z,71.80
2023-09-08T02:22:01.681Z,71.88
2023-09-08T02:27:02.203Z,72.14
2023-09-08T02:32:02.816Z,72.17
2023-09-08T02:37:02.051Z,72.02
2023-09-08T02:42:01.473Z,72.01
2023-09-08T02:47:01.463Z,72.00
2023-09-08T02:52:01.466Z,72.25
2023-09-08T02:57:00.955Z,72.23
2023-09-08T03:02:01.406Z,72.34
2023-09-08T03:07:00.970Z,72.53
2023-09-08T03:12:00.966Z,72.83
2023-09-08T03:17:01.827Z,72.59
2023-09-08T03:22:01.414Z,72.67
2023-09-08T03:27:01.185Z,72.68
2023-09-08T03:32:02.062Z,72.78
2023-09-08T03:37:02.084Z,72.81
2023-09-08T03:42:02.095Z,72.82
2023-09-08T03:47:03.821Z,72.85
2023-09-08T03:52:03.704Z,73.00
2023-09-08T03:57:05.205Z,73.11
2023-09-08T04:02:04.922Z,73.16
2023-09-08T04:07:04.986Z,73.40
2023-09-08T04:12:05.530Z,73.59
2023-09-08T04:17:05.510Z,73.70
2023-09-08T04:22:06.259Z,73.68
2023-09-08T04:27:05.429Z,73.78
2023-09-08T04:32:10.275Z,73.91
2023-09-08T04:37:10.270Z,74.08
2023-09-08T04:42:10.882Z,74.22
2023-09-08T04:47:10.441Z,74.61
2023-09-08T04:52:12.618Z,75.07
2023-09-08T04:57:22.944Z,75.02
2023-09-08T05:02:25.881Z,75.22
2023-09-08T05:07:26.133Z,75.31
2023-09-08T05:12:26.241Z,75.47
2023-09-08T05:17:25.364Z,75.68
2023-09-08T05:22:26.402Z,75.97
2023-09-08T05:27:26.927Z,76.27
2023-09-08T05:32:27.547Z,76.58
2023-09-08T05:37:31.414Z,76.61
2023-09-08T05:42:31.200Z,76.56
2023-09-08T05:47:30.461Z,76.57
2023-09-08T05:52:30.104Z,76.78
2023-09-08T05:57:30.093Z,76.95
2023-09-08T06:02:30.428Z,76.99
2023-09-08T06:07:31.173Z,77.18
2023-09-08T06:12:30.970Z,77.38
2023-09-08T06:17:30.375Z,77.07
2023-09-08T06:22:31.371Z,77.10
2023-09-08T06:27:34.000Z,76.81
2023-09-08T06:32:34.241Z,76.74
2023-09-08T06:37:40.456Z,76.72
2023-09-08T06:42:42.536Z,76.45
2023-09-08T06:47:47.142Z,76.46
2023-09-08T06:52:47.371Z,76.48
2023-09-08T06:57:47.285Z,76.09
2023-09-08T07:02:47.412Z,75.82
2023-09-08T07:07:51.255Z,75.76
2023-09-08T07:12:51.081Z,75.30
2023-09-08T07:17:54.818Z,75.00
2023-09-08T07:22:55.933Z,74.75
2023-09-08T07:27:55.653Z,74.49
2023-09-08T07:32:56.093Z,74.11
2023-09-08T07:37:57.128Z,73.94
2023-09-08T07:42:57.565Z,73.42
2023-09-08T07:47:57.350Z,72.86
2023-09-08T07:52:58.997Z,72.33
2023-09-08T07:58:00.367Z,71.86
2023-09-08T08:03:01.931Z,71.53
2023-09-08T08:08:02.675Z,70.72
2023-09-08T08:13:01.834Z,69.74
2023-09-08T08:18:04.364Z,69.55
2023-09-08T08:23:04.807Z,69.40
2023-09-08T08:28:04.522Z,69.23
2023-09-08T08:33:03.876Z,68.62
2023-09-08T08:38:04.557Z,68.18
2023-09-08T08:43:05.169Z,68.04
2023-09-08T08:48:08.526Z,67.56
2023-09-08T08:53:23.545Z,67.28
2023-09-08T08:58:28.083Z,66.95
2023-09-08T09:03:34.262Z,66.75
2023-09-08T09:08:36.329Z,66.33
2023-09-08T09:13:36.882Z,65.85
2023-09-08T09:18:56.120Z,65.44
2023-09-08T09:23:57.050Z,65.07
2023-09-08T09:29:01.620Z,64.39
2023-09-08T09:34:11.944Z,63.85
2023-09-08T09:39:12.640Z,63.44
2023-09-08T09:44:13.592Z,62.87
2023-09-08T09:49:19.068Z,62.51
2023-09-08T09:54:19.797Z,61.90
2023-09-08T09:59:19.937Z,60.99
2023-09-08T10:04:20.874Z,59.18
2023-09-08T10:09:25.409Z,56.17
2023-09-08T10:14:26.049Z,57.10
2023-09-08T10:19:29.245Z,56.36
2023-09-08T10:24:35.082Z,55.41
2023-09-08T10:29:37.259Z,53.42
2023-09-08T10:34:39.847Z,52.95
2023-09-08T10:39:43.098Z,52.59
2023-09-08T10:44:45.105Z,52.35
2023-09-08T10:49:47.821Z,50.56
2023-09-08T10:54:56.288Z,46.24
2023-09-08T11:00:01.375Z,47.60
2023-09-08T11:05:01.532Z,47.63
2023-09-08T11:10:01.676Z,45.87
2023-09-08T11:15:02.543Z,47.46
2023-09-08T11:20:02.639Z,47.08
2023-09-08T11:25:05.881Z,44.77
2023-09-08T11:30:08.370Z,46.93
2023-09-08T11:35:12.563Z,46.99
2023-09-08T11:40:15.583Z,45.77
2023-09-08T11:45:19.418Z,44.31
2023-09-08T11:50:20.828Z,43.07
2023-09-08T11:55:30.432Z,42.46
2023-09-08T12:00:34.245Z,43.66
2023-09-08T12:05:41.403Z,44.73
2023-09-08T12:10:47.103Z,45.63
2023-09-08T12:15:47.737Z,45.83
2023-09-08T12:20:49.524Z,44.34
2023-09-08T12:25:56.427Z,43.62
2023-09-08T12:30:57.074Z,44.37
2023-09-08T12:35:56.506Z,44.42
2023-09-08T12:40:56.548Z,42.77
2023-09-08T12:45:58.947Z,41.72
2023-09-08T12:50:59.942Z,40.91
2023-09-08T12:56:09.490Z,40.32
2023-09-08T13:01:08.722Z,42.23
2023-09-08T13:06:09.429Z,39.98
2023-09-08T13:11:14.946Z,41.72
2023-09-08T13:16:17.614Z,42.30
2023-09-08T13:21:16.978Z,42.70
2023-09-08T13:26:19.024Z,41.88
2023-09-08T13:31:21.848Z,36.23
2023-09-08T13:36:21.236Z,37.93
2023-09-08T13:41:23.494Z,39.32
2023-09-08T13:46:35.653Z,39.66
2023-09-08T13:51:42.724Z,38.58
2023-09-08T13:56:45.391Z,38.59
2023-09-08T14:01:53.983Z,39.25
2023-09-08T14:07:08.576Z,38.31
2023-09-08T14:12:33.298Z,36.60
2023-09-08T14:17:41.248Z,34.19
2023-09-08T14:22:41.064Z,36.27
2023-09-08T14:27:42.513Z,35.07
2023-09-08T14:32:42.310Z,35.07
2023-09-08T14:37:41.225Z,37.15
2023-09-08T14:42:40.911Z,37.24
2023-09-08T14:47:40.480Z,36.25
2023-09-08T14:52:42.686Z,34.39
2023-09-08T14:57:43.559Z,34.65
2023-09-08T15:02:42.949Z,35.15
2023-09-08T15:07:42.707Z,35.96
2023-09-08T15:12:41.985Z,36.74
2023-09-08T15:17:44.543Z,37.27
2023-09-08T15:22:44.167Z,37.93
2023-09-08T15:27:44.464Z,38.23
2023-09-08T15:32:43.736Z,38.52
2023-09-08T15:37:45.082Z,39.25
2023-09-08T15:42:46.718Z,40.19
2023-09-08T15:47:46.107Z,41.01
2023-09-08T15:52:54.420Z,41.55
2023-09-08T15:57:59.891Z,42.09
2023-09-08T16:02:59.434Z,42.40
2023-09-08T16:08:12.574Z,42.62
2023-09-08T16:13:26.604Z,42.58
2023-09-08T16:18:26.176Z,42.47
2023-09-08T16:23:36.870Z,42.68
2023-09-08T16:28:37.536Z,43.01
2023-09-08T16:33:40.408Z,43.11
2023-09-08T16:38:40.215Z,43.52
2023-09-08T16:43:40.104Z,43.73
2023-09-08T16:48:41.906Z,43.92
2023-09-08T16:53:50.529Z,44.50
2023-09-08T16:58:51.158Z,44.44
2023-09-08T17:03:51.015Z,44.74
2023-09-08T17:08:52.860Z,44.98
2023-09-08T17:13:53.938Z,45.48
2023-09-08T17:18:54.181Z,46.01
2023-09-08T17:23:53.584Z,47.07
2023-09-08T17:28:53.573Z,47.52
2023-09-08T17:34:02.499Z,49.17
2023-09-08T17:39:02.725Z,49.78
2023-09-08T17:44:02.853Z,50.21
2023-09-08T17:49:04.224Z,50.39
2023-09-08T17:54:03.726Z,50.91
2023-09-08T17:59:03.507Z,51.48
2023-09-08T18:04:03.879Z,52.04
2023-09-08T18:09:03.724Z,52.45
2023-09-08T18:14:04.470Z,52.99
2023-09-08T18:19:05.251Z,53.77
2023-09-08T18:24:06.058Z,54.37
2023-09-08T18:29:08.724Z,54.83
2023-09-08T18:34:10.237Z,55.23
2023-09-08T18:39:11.035Z,55.16
2023-09-08T18:44:12.599Z,55.17
2023-09-08T18:49:11.960Z,55.51
2023-09-08T18:54:13.758Z,56.41
2023-09-08T18:59:14.302Z,57.00
2023-09-08T19:04:14.008Z,57.64
2023-09-08T19:09:14.200Z,57.42
2023-09-08T19:14:15.806Z,58.40
2023-09-08T19:19:16.015Z,58.91
2023-09-08T19:24:19.296Z,59.42
2023-09-08T19:29:20.785Z,59.59
2023-09-08T19:34:21.949Z,60.52
2023-09-08T19:39:26.590Z,61.13
2023-09-08T19:44:28.312Z,61.58
2023-09-08T19:49:36.803Z,61.89
2023-09-08T19:54:48.935Z,62.25
2023-09-08T19:59:51.710Z,62.33
2023-09-08T20:04:57.379Z,62.12
2023-09-08T20:09:58.401Z,62.67
2023-09-08T20:15:01.014Z,62.74
2023-09-08T20:20:00.439Z,62.98
2023-09-08T20:25:00.652Z,63.31
2023-09-08T20:30:02.049Z,63.71
2023-09-08T20:35:02.451Z,64.46
2023-09-08T20:40:04.685Z,65.24
2023-09-08T20:45:05.602Z,65.41
2023-09-08T20:50:05.716Z,65.95
2023-09-08T20:55:05.792Z,66.31
2023-09-08T21:00:06.256Z,66.90
2023-09-08T21:05:07.124Z,67.53
2023-09-08T21:10:07.312Z,67.74
2023-09-08T21:15:08.376Z,67.96
2023-09-08T21:20:14.407Z,68.30
2023-09-08T21:25:15.113Z,68.52
2023-09-08T21:30:15.749Z,68.88
2023-09-08T21:35:16.223Z,69.04
2023-09-08T21:40:17.731Z,69.29
2023-09-08T21:45:17.991Z,69.20
2023-09-08T21:50:17.776Z,69.28
2023-09-08T21:55:19.201Z,69.50
2023-09-08T22:00:23.412Z,69.80
2023-09-08T22:05:23.784Z,70.00
2023-09-08T22:10:24.131Z,70.15
2023-09-08T22:15:23.623Z,70.47
2023-09-08T22:20:23.978Z,71.00
2023-09-08T22:25:24.460Z,71.14
2023-09-08T22:30:24.209Z,71.52
2023-09-08T22:35:23.506Z,71.74
2023-09-08T22:40:23.515Z,71.79
2023-09-08T22:45:23.718Z,71.74
2023-09-08T22:50:24.478Z,72.01
2023-09-08T22:55:26.088Z,71.81
2023-09-08T23:00:26.534Z,71.75
2023-09-08T23:05:26.134Z,72.59
2023-09-08T23:10:29.094Z,72.73
2023-09-08T23:15:29.956Z,73.00
2023-09-08T23:20:31.222Z,72.93
2023-09-08T23:25:32.163Z,72.99
2023-09-08T23:30:32.201Z,73.50
2023-09-08T23:35:31.520Z,73.28
2023-09-08T23:40:31.317Z,73.71
2023-09-08T23:45:30.724Z,73.31
2023-09-08T23:50:57.744Z,73.72
2023-09-08T23:55:58.584Z,73.75
